• Join FlightAware (Why Join?)
  • Login
  • US Flag 
07:42AM EDT


 

Airport Tracker/Info


-or-


 

Live Flight TrackerFlight Track Log ✈ DAL2025 ✈ 15-Jun-2013 ✈ KATL - KBWI

Flight Track Log - Related Links

Times and Time Zones

All times are in EDT time to prevent confusion due to time zone crossing. See the DAL2025 flight status page for this flight to view local times or setup timezone preferences in your user account.

Time Position Orientation Groundspeed Altitude Reporting Facility
EDT Latitude Longitude Course Direction KTS MPH feet Rate Location/Type
08:55AM 33.6333 -84.3500 53° Northeast 222 255 3,700  Level Atlanta TRACON
08:56AM 33.6333 -84.2667 90° East 273 314 6,900 2,580 Climbing Atlanta TRACON
08:57AM 33.7294 -84.0122 54° Northeast  Level FlightAware Approximate
08:57AM 33.6356 -84.1161 89° East 304 350 10,300  Level Atlanta Center
08:58AM 33.7980 -83.8979 54° Northeast  Level FlightAware Approximate
08:58AM 33.6919 -84.0264 53° Northeast 316 364 12,000  Level Atlanta Center
08:59AM 33.8666 -83.7835 54° Northeast  Level FlightAware Approximate
08:59AM 33.7650 -83.9314 47° Northeast 352 405 13,700  Level Atlanta Center
09:00AM 33.9422 -83.6758 53° Northeast  Level FlightAware Approximate
09:00AM 33.8419 -83.8311 47° Northeast 390 449 15,800  Level Atlanta Center
09:01AM 33.9211 -83.7258 48° Northeast 411 473 17,800 1,920 Climbing Atlanta Center
09:02AM 33.9958 -83.6103 52° Northeast 425 489 19,700 1,800 Climbing Atlanta Center
09:03AM 34.0706 -83.4897 53° Northeast 438 504 21,500 1,740 Climbing Atlanta Center
09:04AM 34.1453 -83.3686 53° Northeast 449 517 23,200 1,440 Climbing Atlanta Center
09:05AM 34.2236 -83.2425 53° Northeast 455 524 24,400 1,620 Climbing Atlanta Center
09:06AM 34.3042 -83.1183 52° Northeast 462 532 26,500 1,800 Climbing Atlanta Center
09:07AM 34.3806 -82.9967 53° Northeast 457 526 28,100 1,560 Climbing Atlanta Center
09:08AM 34.4567 -82.8725 53° Northeast 458 527 29,700 1,500 Climbing Atlanta Center
09:09AM 34.5222 -82.7656 53° Northeast 458 527 31,200 1,560 Climbing Atlanta Center
09:10AM 34.5939 -82.6433 55° Northeast 451 519 32,900 900 Climbing Atlanta Center
09:11AM 34.6678 -82.5311 51° Northeast 438 504 33,000  Climbing Atlanta Center
09:12AM 34.7414 -82.4108 53° Northeast 438 504 33,000  Level Atlanta Center
09:13AM 34.8128 -82.2906 54° Northeast 443 510 33,000  Level Atlanta Center
09:14AM 34.8883 -82.1700 53° Northeast 443 510 33,000  Level Atlanta Center
09:15AM 34.9614 -82.0542 52° Northeast 436 502 33,000  Level Atlanta Center
09:16AM 35.0325 -81.9308 55° Northeast 436 502 33,000  Level Atlanta Center
09:17AM 35.1011 -81.8047 56° Northeast 441 507 33,000  Level Atlanta Center
09:18AM 35.1656 -81.6811 57° Northeast 442 509 33,000  Level Atlanta Center
09:19AM 35.2319 -81.5519 58° Northeast 442 509 33,000  Level Atlanta Center
09:20AM 35.3042 -81.4150 57° Northeast 437 503 33,000  Level Atlanta Center
09:21AM 35.3683 -81.2881 58° Northeast 437 503 33,000  Level Atlanta Center
09:22AM 35.4322 -81.1636 58° Northeast 437 503 33,000  Level Atlanta Center
09:23AM 35.4981 -81.0389 57° Northeast 437 503 33,000  Level Atlanta Center
09:24AM 35.5636 -80.9139 57° Northeast 437 503 33,000  Level Atlanta Center
09:25AM 35.6272 -80.7864 58° Northeast 437 503 33,000  Level Atlanta Center
09:26AM 35.6928 -80.6636 57° Northeast 432 497 33,000  Level Atlanta Center
09:27AM 35.7561 -80.5406 58° Northeast 426 490 33,000  Level Atlanta Center
09:28AM 35.8211 -80.4150 57° Northeast 426 490 33,000  Level Atlanta Center
09:31AM 35.9547 -80.1442 59° Northeast 420 483 33,000  Level Washington Center
09:32AM 36.0217 -80.0247 55° Northeast 413 475 33,000  Level Washington Center
09:33AM 36.0847 -79.9047 57° Northeast 413 475 33,000  Level Washington Center
09:34AM 36.1603 -79.7700 55° Northeast 426 490 33,000  Level Washington Center
09:35AM 36.2247 -79.6550 55° Northeast 426 490 33,000  Level Washington Center
09:36AM 36.2936 -79.5322 55° Northeast 421 484 33,000  Level Washington Center
09:37AM 36.3533 -79.4297 54° Northeast 416 479 33,000  Level Washington Center
09:38AM 36.4175 -79.3089 57° Northeast 411 473 33,000  Level Washington Center
09:39AM 36.4883 -79.1831 55° Northeast 406 467 33,000  Level Washington Center
09:40AM 36.5494 -79.0850 52° Northeast 406 467 33,000  Level Washington Center
09:41AM 36.6133 -78.9714 55° Northeast 401 461 33,000  Level Washington Center
09:42AM 36.6817 -78.8372 58° Northeast 401 461 33,000  Level Washington Center
09:43AM 36.7408 -78.7308 55° Northeast 411 473 33,000 -360 Level Washington Center
09:44AM 36.8064 -78.6142 55° Northeast 411 473 32,400 -1,380 Descending Washington Center
09:45AM 36.8742 -78.4922 55° Northeast 411 473 30,200 -2,160 Descending Washington Center
09:46AM 36.9528 -78.3469 56° Northeast 437 503 28,200 -1,560 Descending Washington Center
09:47AM 37.0225 -78.2167 56° Northeast 450 518 27,200 -600 Descending Washington Center
09:48AM 37.0831 -78.1069 55° Northeast 450 518 27,000 -240 Descending Washington Center
09:49AM 37.1586 -77.9842 52° Northeast 445 512 26,800 -420 Descending Washington Center
09:50AM 37.2603 -77.9064 31° Northeast 414 476 26,200 -840 Descending Washington Center
09:51AM 37.3639 -77.8392 27° Northeast 414 476 25,200 -960 Descending Washington Center
09:52AM 37.4653 -77.7689 29° Northeast 414 476 24,300 -840 Descending Washington Center
09:53AM 37.5644 -77.7036 28° Northeast 409 471 23,600 -660 Descending Washington Center
09:54AM 37.6636 -77.6356 29° Northeast 404 465 23,000 -300 Descending Washington Center
09:55AM 37.7608 -77.5644 30° Northeast 398 458 23,000  Level Washington Center
09:56AM 37.8600 -77.4986 28° Northeast 398 458 23,000  Level Washington Center
09:57AM 37.9589 -77.4275 30° Northeast 398 458 23,000 -300 Level Washington Center
09:58AM 38.0664 -77.3561 28° Northeast 398 458 22,500 -1,620 Descending Washington Center
09:59AM 38.1633 -77.2897 28° Northeast 398 458 19,800 -2,460 Descending Washington Center
10:00AM 38.2561 -77.2231 29° Northeast 398 458 17,700 -2,280 Descending Washington Center
10:01AM 38.3464 -77.1589 29° Northeast 387 445 15,400 -1,980 Descending Washington Center
10:02AM 38.4667 -77.0333 39° Northeast 362 417 12,500 -1,500 Descending Potomac TRACON
10:03AM 38.5008 -76.9950 41° Northeast 362 417 12,400 -1,080 Descending Washington Center
10:04AM 38.5725 -76.9089 43° Northeast 352 405 11,000 -1,200 Descending Washington Center
10:05AM 38.6403 -76.8275 43° Northeast 339 390 10,100 -1,020 Descending Washington Center
10:06AM 38.6950 -76.7539 46° Northeast 308 354 9,000 -1,080 Descending Washington Center
10:07AM 38.7397 -76.6669 57° Northeast 295 339 8,000 -1,380 Descending Washington Center
10:07AM 38.7667 -76.6000 63° Northeast 295 339 6,800 -1,260 Descending Potomac TRACON
10:08AM 38.8167 -76.5333 46° Northeast 286 329 6,000 -960 Descending Potomac TRACON
10:09AM 38.8833 -76.5500 349° North 260 299 4,900 -1,080 Descending Potomac TRACON
10:10AM 38.9667 -76.5667 351° North 259 298 3,900 -1,020 Descending Potomac TRACON
10:11AM 39.0333 -76.5833 349° North 230 265 2,900 -1,020 Descending Potomac TRACON